ニジネヴァルトフスク の空港の天気 - METARとTAF

Nizhnevartovsk ( USNN / NJC ) - ロシア ニジネヴァルトフスク
飛行場実況気象(Metar)
観測時間01/20 22:30 +05 (01/20 17:30 UTC)
風向・風速南 5m/s
視程6000m
天気現象弱い雪
全天の4割程度の雲 雲底高度 370m
全天を覆う雲 雲底高度 850m
気温-18℃
湿度92%
気圧1005hPa
METARUSNN 201730Z 18005MPS 6000 -SN SCT012 OVC028 M18/M19 Q1005 R21/39//37 NOSIG RMK QFE749
過去の天気等 Google飛行場航空写真 Wunderground天気予報

過去48時間のMETAR

飛行場予報(TAF)
発表時間: 1/20 22:00 +05 (1/20 17:00 UTC)
予報対象時間: 20日23時 +05 ~ 21日23時 +05
風向・風速南 6m/s 瞬間風速 11m/s
視程4,000m
天気現象弱い雪
全天の4割程度の雲 雲底高度 210m
20日23時 +05 ~ 21日8時 +05 に一時的に
視程2,000m
天気現象しゅう雪
全天の8割程度の雲 雲底高度 90m
全天の8割程度の積乱雲 雲底高度 460m
TAF USNN 201700Z 2018/2118 17006G11MPS 4000 -SN SCT007
TEMPO 2018/2103 2000 SHSN BKN003 BKN015CB